sensor_id;sensor_type;location;lat;lon;timestamp;pressure;altitude;pressure_sealevel;temperature;humidity
11643;BME280;5877;50.930;6.918;2023-05-20T00:03:12;101601.59;;;13.61;50.79
11643;BME280;5877;50.930;6.918;2023-05-20T00:08:16;101600.59;;;13.55;51.17
11643;BME280;5877;50.930;6.918;2023-05-20T00:13:44;101595.94;;;13.57;51.26
11643;BME280;5877;50.930;6.918;2023-05-20T00:18:50;101578.13;;;13.26;51.43
11643;BME280;5877;50.930;6.918;2023-05-20T00:23:57;101495.06;;;12.78;51.53
11643;BME280;5877;50.930;6.918;2023-05-20T00:29:19;101596.19;;;13.29;52.25
11643;BME280;5877;50.930;6.918;2023-05-20T00:34:15;101581.97;;;13.11;51.98
11643;BME280;5877;50.930;6.918;2023-05-20T00:39:18;101602.06;;;13.25;52.13
11643;BME280;5877;50.930;6.918;2023-05-20T00:44:18;101598.81;;;13.23;52.07
11643;BME280;5877;50.930;6.918;2023-05-20T00:49:21;101478.47;;;12.51;51.95
11643;BME280;5877;50.930;6.918;2023-05-20T00:54:19;101575.91;;;13.10;52.29
11643;BME280;5877;50.930;6.918;2023-05-20T00:59:16;101577.50;;;13.11;52.09
11643;BME280;5877;50.930;6.918;2023-05-20T01:04:36;101540.88;;;12.90;51.96
11643;BME280;5877;50.930;6.918;2023-05-20T01:09:49;101550.59;;;12.89;52.55
11643;BME280;5877;50.930;6.918;2023-05-20T01:14:57;101566.63;;;12.94;52.69
11643;BME280;5877;50.930;6.918;2023-05-20T01:19:59;101543.09;;;12.73;52.81
11643;BME280;5877;50.930;6.918;2023-05-20T01:25:02;101567.03;;;12.78;53.11
11643;BME280;5877;50.930;6.918;2023-05-20T01:30:14;101563.97;;;12.68;54.04
11643;BME280;5877;50.930;6.918;2023-05-20T01:35:38;101556.28;;;12.66;53.54
11643;BME280;5877;50.930;6.918;2023-05-20T01:40:49;101563.38;;;12.59;53.84
11643;BME280;5877;50.930;6.918;2023-05-20T01:45:46;101551.81;;;12.47;54.49
11643;BME280;5877;50.930;6.918;2023-05-20T01:50:42;101557.47;;;12.38;54.40
11643;BME280;5877;50.930;6.918;2023-05-20T01:55:49;101522.38;;;12.17;54.36
11643;BME280;5877;50.930;6.918;2023-05-20T02:00:42;101550.97;;;12.27;54.56
11643;BME280;5877;50.930;6.918;2023-05-20T02:06:02;101524.78;;;12.06;54.77
11643;BME280;5877;50.930;6.918;2023-05-20T02:11:06;101548.28;;;12.07;55.94
11643;BME280;5877;50.930;6.918;2023-05-20T02:16:03;101532.63;;;11.86;56.42
11643;BME280;5877;50.930;6.918;2023-05-20T02:21:27;101545.78;;;11.86;57.64
11643;BME280;5877;50.930;6.918;2023-05-20T02:26:41;101545.50;;;11.74;58.20
11643;BME280;5877;50.930;6.918;2023-05-20T02:31:38;101465.56;;;11.21;58.32
11643;BME280;5877;50.930;6.918;2023-05-20T02:36:36;101540.59;;;11.64;58.85
11643;BME280;5877;50.930;6.918;2023-05-20T02:41:36;101542.97;;;11.53;59.23
11643;BME280;5877;50.930;6.918;2023-05-20T02:46:34;101537.84;;;11.38;59.67
11643;BME280;5877;50.930;6.918;2023-05-20T02:51:40;101547.06;;;11.27;60.43
11643;BME280;5877;50.930;6.918;2023-05-20T02:56:47;101513.66;;;11.15;60.62
11643;BME280;5877;50.930;6.918;2023-05-20T03:02:09;101525.19;;;11.20;61.03
11643;BME280;5877;50.930;6.918;2023-05-20T03:07:20;101520.66;;;11.07;61.75
11643;BME280;5877;50.930;6.918;2023-05-20T03:12:15;101514.38;;;11.02;61.85
11643;BME280;5877;50.930;6.918;2023-05-20T03:17:21;101504.16;;;10.86;62.66
11643;BME280;5877;50.930;6.918;2023-05-20T03:22:29;101499.09;;;10.84;63.18
11643;BME280;5877;50.930;6.918;2023-05-20T03:27:36;101473.06;;;10.61;63.39
11643;BME280;5877;50.930;6.918;2023-05-20T03:32:43;101512.59;;;10.81;63.46
11643;BME280;5877;50.930;6.918;2023-05-20T03:37:53;101524.78;;;10.89;63.83
11643;BME280;5877;50.930;6.918;2023-05-20T03:42:50;101522.41;;;10.94;63.21
11643;BME280;5877;50.930;6.918;2023-05-20T03:47:57;101487.09;;;10.75;63.93
11643;BME280;5877;50.930;6.918;2023-05-20T03:52:57;101486.38;;;10.88;62.83
11643;BME280;5877;50.930;6.918;2023-05-20T03:58:36;101523.50;;;11.41;62.36
11643;BME280;5877;50.930;6.918;2023-05-20T04:09:44;101468.50;;;11.39;61.55
11643;BME280;5877;50.930;6.918;2023-05-20T04:19:55;101518.94;;;12.17;60.12
11643;BME280;5877;50.930;6.918;2023-05-20T04:38:21;101524.66;;;12.86;58.88
11643;BME280;5877;50.930;6.918;2023-05-20T04:43:30;101486.75;;;12.81;58.54
11643;BME280;5877;50.930;6.918;2023-05-20T04:49:33;101524.38;;;13.34;57.53
11643;BME280;5877;50.930;6.918;2023-05-20T04:56:04;101521.53;;;13.87;56.27
11643;BME280;5877;50.930;6.918;2023-05-20T05:02:14;101515.50;;;16.91;48.52
11643;BME280;5877;50.930;6.918;2023-05-20T05:07:06;101434.06;;;17.14;45.59
11643;BME280;5877;50.930;6.918;2023-05-20T05:11:59;101438.25;;;16.40;47.24
11643;BME280;5877;50.930;6.918;2023-05-20T05:16:52;101507.38;;;16.50;48.33
11643;BME280;5877;50.930;6.918;2023-05-20T05:21:47;101507.47;;;16.32;48.87
11643;BME280;5877;50.930;6.918;2023-05-20T05:26:40;101498.88;;;16.48;48.55
11643;BME280;5877;50.930;6.918;2023-05-20T05:31:32;101501.69;;;16.77;47.77
11643;BME280;5877;50.930;6.918;2023-05-20T05:36:25;101497.63;;;17.09;47.10
11643;BME280;5877;50.930;6.918;2023-05-20T05:41:17;101447.72;;;16.95;46.51
11643;BME280;5877;50.930;6.918;2023-05-20T05:46:13;101455.31;;;17.43;46.00
11643;BME280;5877;50.930;6.918;2023-05-20T05:51:05;101374.00;;;17.37;45.05
11643;BME280;5877;50.930;6.918;2023-05-20T05:55:58;101466.00;;;18.38;44.02
11643;BME280;5877;50.930;6.918;2023-05-20T06:00:51;101466.00;;;18.55;43.48
11643;BME280;5877;50.930;6.918;2023-05-20T06:05:45;101423.78;;;18.59;42.66
11643;BME280;5877;50.930;6.918;2023-05-20T06:10:41;101431.50;;;18.60;42.91
11643;BME280;5877;50.930;6.918;2023-05-20T06:15:41;101458.03;;;18.72;43.14
11643;BME280;5877;50.930;6.918;2023-05-20T06:20:35;101473.09;;;18.83;43.04
11643;BME280;5877;50.930;6.918;2023-05-20T06:25:27;101468.75;;;18.77;43.16
11643;BME280;5877;50.930;6.918;2023-05-20T06:30:20;101390.25;;;18.58;42.58
11643;BME280;5877;50.930;6.918;2023-05-20T06:35:17;101461.53;;;19.16;42.58
11643;BME280;5877;50.930;6.918;2023-05-20T06:40:12;101383.13;;;19.02;41.43
11643;BME280;5877;50.930;6.918;2023-05-20T06:45:07;101457.50;;;19.35;41.45
11643;BME280;5877;50.930;6.918;2023-05-20T06:50:06;101462.50;;;18.88;42.69
11643;BME280;5877;50.930;6.918;2023-05-20T06:55:00;101462.53;;;18.55;43.27
11643;BME280;5877;50.930;6.918;2023-05-20T06:59:53;101427.25;;;18.98;42.22
11643;BME280;5877;50.930;6.918;2023-05-20T07:04:46;101431.72;;;19.90;40.69
11643;BME280;5877;50.930;6.918;2023-05-20T07:09:38;101362.63;;;19.51;39.72
11643;BME280;5877;50.930;6.918;2023-05-20T07:14:34;101451.63;;;20.93;38.81
11643;BME280;5877;50.930;6.918;2023-05-20T07:19:27;101407.09;;;21.04;38.25
11643;BME280;5877;50.930;6.918;2023-05-20T07:24:20;101434.25;;;22.45;35.85
11643;BME280;5877;50.930;6.918;2023-05-20T07:29:16;101383.91;;;24.28;32.50
11643;BME280;5877;50.930;6.918;2023-05-20T07:34:08;101426.47;;;24.64;31.94
11643;BME280;5877;50.930;6.918;2023-05-20T07:39:04;101414.03;;;25.16;31.47
11643;BME280;5877;50.930;6.918;2023-05-20T07:44:05;101403.13;;;25.26;30.70
11643;BME280;5877;50.930;6.918;2023-05-20T07:49:03;101393.78;;;25.23;31.13
11643;BME280;5877;50.930;6.918;2023-05-20T07:53:59;101409.59;;;25.25;30.86
11643;BME280;5877;50.930;6.918;2023-05-20T07:58:56;101400.22;;;22.81;34.66
11643;BME280;5877;50.930;6.918;2023-05-20T08:03:54;101402.44;;;23.18;34.52
11643;BME280;5877;50.930;6.918;2023-05-20T08:08:51;101416.25;;;23.40;34.06
11643;BME280;5877;50.930;6.918;2023-05-20T08:13:52;101338.56;;;22.16;35.80
11643;BME280;5877;50.930;6.918;2023-05-20T08:18:47;101385.56;;;22.53;35.89
11643;BME280;5877;50.930;6.918;2023-05-20T08:23:39;101390.69;;;21.98;36.96
11643;BME280;5877;50.930;6.918;2023-05-20T08:28:32;101395.81;;;22.05;37.13
11643;BME280;5877;50.930;6.918;2023-05-20T08:33:27;101385.44;;;22.88;35.84
11643;BME280;5877;50.930;6.918;2023-05-20T08:38:21;101368.84;;;22.91;35.40
11643;BME280;5877;50.930;6.918;2023-05-20T08:43:15;101382.50;;;23.73;34.54
11643;BME280;5877;50.930;6.918;2023-05-20T08:48:08;101307.94;;;25.13;31.65
11643;BME280;5877;50.930;6.918;2023-05-20T08:53:02;101380.44;;;26.30;30.03
11643;BME280;5877;50.930;6.918;2023-05-20T08:57:55;101347.50;;;25.08;31.80
11643;BME280;5877;50.930;6.918;2023-05-20T09:02:50;101371.84;;;25.16;31.58
11643;BME280;5877;50.930;6.918;2023-05-20T09:07:44;101378.84;;;24.93;32.32
11643;BME280;5877;50.930;6.918;2023-05-20T09:12:40;101371.34;;;24.90;32.71
11643;BME280;5877;50.930;6.918;2023-05-20T09:17:38;101366.63;;;26.50;30.36
11643;BME280;5877;50.930;6.918;2023-05-20T09:22:31;101374.94;;;25.42;32.10
11643;BME280;5877;50.930;6.918;2023-05-20T09:27:25;101369.38;;;25.39;31.57
11643;BME280;5877;50.930;6.918;2023-05-20T09:32:22;101361.78;;;26.19;30.95
11643;BME280;5877;50.930;6.918;2023-05-20T09:37:17;101354.72;;;26.24;30.69
11643;BME280;5877;50.930;6.918;2023-05-20T09:42:24;101350.03;;;26.70;30.30
11643;BME280;5877;50.930;6.918;2023-05-20T09:47:19;101362.63;;;26.34;30.59
11643;BME280;5877;50.930;6.918;2023-05-20T09:52:14;101352.94;;;26.74;30.79
11643;BME280;5877;50.930;6.918;2023-05-20T09:57:11;101347.66;;;26.00;31.47
11643;BME280;5877;50.930;6.918;2023-05-20T10:02:06;101358.44;;;25.68;32.01
11643;BME280;5877;50.930;6.918;2023-05-20T10:12:50;101345.34;;;25.61;32.49
11643;BME280;5877;50.930;6.918;2023-05-20T10:23:27;101342.66;;;26.21;31.26
11643;BME280;5877;50.930;6.918;2023-05-20T10:28:33;101348.72;;;25.53;32.86
11643;BME280;5877;50.930;6.918;2023-05-20T10:33:41;101321.03;;;24.58;34.01
11643;BME280;5877;50.930;6.918;2023-05-20T10:38:33;101342.16;;;24.65;33.95
11643;BME280;5877;50.930;6.918;2023-05-20T10:43:27;101317.59;;;23.76;35.12
11643;BME280;5877;50.930;6.918;2023-05-20T10:48:27;101340.53;;;24.16;34.98
11643;BME280;5877;50.930;6.918;2023-05-20T10:53:22;101320.44;;;24.62;33.75
11643;BME280;5877;50.930;6.918;2023-05-20T10:58:25;101313.25;;;24.57;33.87
11643;BME280;5877;50.930;6.918;2023-05-20T11:03:20;101273.72;;;24.63;33.45
11643;BME280;5877;50.930;6.918;2023-05-20T11:08:13;101325.16;;;24.51;34.08
11643;BME280;5877;50.930;6.918;2023-05-20T11:13:19;101338.56;;;23.98;35.25
11643;BME280;5877;50.930;6.918;2023-05-20T11:18:12;101327.91;;;24.17;34.54
11643;BME280;5877;50.930;6.918;2023-05-20T11:23:14;101315.66;;;24.11;35.15
11643;BME280;5877;50.930;6.918;2023-05-20T11:28:13;101300.28;;;24.83;33.27
11643;BME280;5877;50.930;6.918;2023-05-20T11:33:07;101269.34;;;24.48;34.27
11643;BME280;5877;50.930;6.918;2023-05-20T11:38:05;101312.34;;;24.85;33.67
11643;BME280;5877;50.930;6.918;2023-05-20T11:43:01;101311.53;;;24.18;35.23
11643;BME280;5877;50.930;6.918;2023-05-20T11:47:59;101310.56;;;24.57;34.81
11643;BME280;5877;50.930;6.918;2023-05-20T11:52:58;101271.78;;;24.68;33.74
11643;BME280;5877;50.930;6.918;2023-05-20T11:57:54;101295.06;;;24.91;33.91
11643;BME280;5877;50.930;6.918;2023-05-20T12:02:48;101307.19;;;24.27;35.34
11643;BME280;5877;50.930;6.918;2023-05-20T12:07:41;101303.88;;;23.83;36.44
11643;BME280;5877;50.930;6.918;2023-05-20T12:12:33;101291.28;;;24.55;35.12
11643;BME280;5877;50.930;6.918;2023-05-20T12:17:28;101286.13;;;24.96;35.06
11643;BME280;5877;50.930;6.918;2023-05-20T12:22:21;101282.50;;;24.02;36.44
11643;BME280;5877;50.930;6.918;2023-05-20T12:27:15;101272.47;;;23.59;37.13
11643;BME280;5877;50.930;6.918;2023-05-20T12:32:07;101264.47;;;24.31;36.32
11643;BME280;5877;50.930;6.918;2023-05-20T12:36:59;101283.63;;;25.05;35.08
11643;BME280;5877;50.930;6.918;2023-05-20T12:41:54;101274.22;;;24.46;35.90
11643;BME280;5877;50.930;6.918;2023-05-20T12:46:49;101186.47;;;23.80;35.80
11643;BME280;5877;50.930;6.918;2023-05-20T12:51:45;101187.66;;;23.69;36.43
11643;BME280;5877;50.930;6.918;2023-05-20T12:56:40;101204.72;;;23.78;36.78
11643;BME280;5877;50.930;6.918;2023-05-20T13:01:33;101261.66;;;23.93;36.72
11643;BME280;5877;50.930;6.918;2023-05-20T13:06:25;101183.66;;;22.79;37.86
11643;BME280;5877;50.930;6.918;2023-05-20T13:11:19;101255.38;;;23.21;37.99
11643;BME280;5877;50.930;6.918;2023-05-20T13:16:13;101228.94;;;22.65;38.23
11643;BME280;5877;50.930;6.918;2023-05-20T13:21:08;101240.91;;;22.83;38.35
11643;BME280;5877;50.930;6.918;2023-05-20T13:26:01;101238.84;;;22.65;38.71
11643;BME280;5877;50.930;6.918;2023-05-20T13:30:55;101225.25;;;23.01;38.20
11643;BME280;5877;50.930;6.918;2023-05-20T13:35:49;101163.84;;;22.75;38.07
11643;BME280;5877;50.930;6.918;2023-05-20T13:40:44;101180.34;;;22.92;37.89
11643;BME280;5877;50.930;6.918;2023-05-20T13:45:36;101104.97;;;22.41;37.30
11643;BME280;5877;50.930;6.918;2023-05-20T13:50:29;101219.56;;;23.12;38.06
11643;BME280;5877;50.930;6.918;2023-05-20T13:55:23;101208.59;;;23.09;37.82
11643;BME280;5877;50.930;6.918;2023-05-20T14:00:30;101213.63;;;23.44;37.48
11643;BME280;5877;50.930;6.918;2023-05-20T14:05:24;101219.97;;;23.24;37.68
11643;BME280;5877;50.930;6.918;2023-05-20T14:10:18;101191.50;;;23.05;37.62
11643;BME280;5877;50.930;6.918;2023-05-20T14:15:11;101201.31;;;22.80;37.81
11643;BME280;5877;50.930;6.918;2023-05-20T14:20:04;101200.41;;;22.51;38.55
11643;BME280;5877;50.930;6.918;2023-05-20T14:24:59;101186.44;;;22.59;38.49
11643;BME280;5877;50.930;6.918;2023-05-20T14:29:52;101188.53;;;22.18;39.57
11643;BME280;5877;50.930;6.918;2023-05-20T14:34:49;101197.97;;;21.95;40.30
11643;BME280;5877;50.930;6.918;2023-05-20T14:39:43;101176.59;;;21.95;39.80
11643;BME280;5877;50.930;6.918;2023-05-20T14:44:36;101177.16;;;21.87;39.28
11643;BME280;5877;50.930;6.918;2023-05-20T14:49:30;101200.44;;;21.76;40.26
11643;BME280;5877;50.930;6.918;2023-05-20T14:54:24;101189.56;;;21.37;40.64
11643;BME280;5877;50.930;6.918;2023-05-20T14:59:18;101169.53;;;21.39;40.52
11643;BME280;5877;50.930;6.918;2023-05-20T15:04:13;101133.75;;;21.05;41.12
11643;BME280;5877;50.930;6.918;2023-05-20T15:09:06;101051.31;;;20.37;41.66
11643;BME280;5877;50.930;6.918;2023-05-20T15:14:00;101156.19;;;21.34;41.16
11643;BME280;5877;50.930;6.918;2023-05-20T15:18:53;101097.25;;;20.60;40.99
11643;BME280;5877;50.930;6.918;2023-05-20T15:23:46;101185.28;;;21.26;40.78
11643;BME280;5877;50.930;6.918;2023-05-20T15:28:39;101187.97;;;21.26;41.35
11643;BME280;5877;50.930;6.918;2023-05-20T15:33:31;101147.63;;;20.92;41.22
11643;BME280;5877;50.930;6.918;2023-05-20T15:38:26;101182.59;;;21.00;41.92
11643;BME280;5877;50.930;6.918;2023-05-20T15:43:21;101110.56;;;20.60;41.62
11643;BME280;5877;50.930;6.918;2023-05-20T15:48:14;101186.06;;;21.16;41.33
11643;BME280;5877;50.930;6.918;2023-05-20T15:53:08;101150.31;;;20.87;41.51
11643;BME280;5877;50.930;6.918;2023-05-20T15:58:01;101173.00;;;20.74;41.63
11643;BME280;5877;50.930;6.918;2023-05-20T16:02:53;101182.56;;;20.50;42.49
11643;BME280;5877;50.930;6.918;2023-05-20T16:07:47;101173.22;;;20.42;42.30
11643;BME280;5877;50.930;6.918;2023-05-20T16:12:41;101174.22;;;20.26;42.98
11643;BME280;5877;50.930;6.918;2023-05-20T16:17:34;101177.78;;;20.62;42.78
11643;BME280;5877;50.930;6.918;2023-05-20T16:22:28;101140.69;;;20.50;42.99
11643;BME280;5877;50.930;6.918;2023-05-20T16:27:21;101182.63;;;20.80;43.01
11643;BME280;5877;50.930;6.918;2023-05-20T16:32:14;101119.19;;;19.94;44.35
11643;BME280;5877;50.930;6.918;2023-05-20T16:37:06;101187.09;;;20.39;43.87
11643;BME280;5877;50.930;6.918;2023-05-20T16:42:00;101122.13;;;19.93;44.01
11643;BME280;5877;50.930;6.918;2023-05-20T16:46:53;101130.69;;;20.00;44.17
11643;BME280;5877;50.930;6.918;2023-05-20T16:51:47;101192.94;;;20.41;43.87
11643;BME280;5877;50.930;6.918;2023-05-20T16:56:39;101194.28;;;20.38;44.20
11643;BME280;5877;50.930;6.918;2023-05-20T17:01:32;101189.88;;;20.07;44.59
11643;BME280;5877;50.930;6.918;2023-05-20T17:06:24;101204.59;;;20.20;44.76
11643;BME280;5877;50.930;6.918;2023-05-20T17:11:17;101200.28;;;19.61;45.62
11643;BME280;5877;50.930;6.918;2023-05-20T17:16:10;101205.19;;;19.80;45.62
11643;BME280;5877;50.930;6.918;2023-05-20T17:21:02;101194.38;;;19.54;45.92
11643;BME280;5877;50.930;6.918;2023-05-20T17:25:55;101167.66;;;19.44;46.05
11643;BME280;5877;50.930;6.918;2023-05-20T17:30:47;101183.47;;;19.56;46.17
11643;BME280;5877;50.930;6.918;2023-05-20T17:35:39;101214.69;;;19.65;46.29
11643;BME280;5877;50.930;6.918;2023-05-20T17:40:33;101197.84;;;19.55;46.53
11643;BME280;5877;50.930;6.918;2023-05-20T17:45:26;101190.06;;;19.48;46.57
11643;BME280;5877;50.930;6.918;2023-05-20T17:50:18;101146.09;;;19.03;47.27
11643;BME280;5877;50.930;6.918;2023-05-20T17:55:10;101209.69;;;19.37;47.34
11643;BME280;5877;50.930;6.918;2023-05-20T18:00:07;101204.81;;;19.29;47.49
11643;BME280;5877;50.930;6.918;2023-05-20T18:05:01;101221.25;;;19.21;47.89
11643;BME280;5877;50.930;6.918;2023-05-20T18:09:53;101217.31;;;18.96;48.43
11643;BME280;5877;50.930;6.918;2023-05-20T18:14:46;101197.75;;;18.80;48.37
11643;BME280;5877;50.930;6.918;2023-05-20T18:19:44;101205.59;;;18.65;49.04
11643;BME280;5877;50.930;6.918;2023-05-20T18:24:36;101221.09;;;18.73;49.02
11643;BME280;5877;50.930;6.918;2023-05-20T18:29:30;101216.88;;;18.56;49.43
11643;BME280;5877;50.930;6.918;2023-05-20T18:34:22;101215.16;;;18.44;49.88
11643;BME280;5877;50.930;6.918;2023-05-20T18:39:15;101205.44;;;18.06;50.73
11643;BME280;5877;50.930;6.918;2023-05-20T18:44:12;101219.53;;;18.07;51.48
11643;BME280;5877;50.930;6.918;2023-05-20T18:49:06;101213.13;;;17.86;51.90
11643;BME280;5877;50.930;6.918;2023-05-20T18:53:58;101165.97;;;17.38;52.59
11643;BME280;5877;50.930;6.918;2023-05-20T18:58:51;101097.09;;;16.76;52.99
11643;BME280;5877;50.930;6.918;2023-05-20T19:03:43;101194.50;;;17.31;53.54
11643;BME280;5877;50.930;6.918;2023-05-20T19:08:38;101148.75;;;16.90;54.06
11643;BME280;5877;50.930;6.918;2023-05-20T19:13:31;101214.44;;;17.16;54.42
11643;BME280;5877;50.930;6.918;2023-05-20T19:18:25;101137.47;;;16.38;55.63
11643;BME280;5877;50.930;6.918;2023-05-20T19:23:19;101223.38;;;16.82;55.98
11643;BME280;5877;50.930;6.918;2023-05-20T19:28:12;101210.53;;;16.74;56.08
11643;BME280;5877;50.930;6.918;2023-05-20T19:33:05;101233.03;;;16.60;56.69
11643;BME280;5877;50.930;6.918;2023-05-20T19:38:01;101235.69;;;16.48;56.97
11643;BME280;5877;50.930;6.918;2023-05-20T19:42:56;101251.84;;;16.46;57.58
11643;BME280;5877;50.930;6.918;2023-05-20T19:47:50;101244.81;;;16.40;57.82
11643;BME280;5877;50.930;6.918;2023-05-20T19:52:44;101240.94;;;16.31;58.08
11643;BME280;5877;50.930;6.918;2023-05-20T19:57:36;101223.56;;;16.12;58.31
11643;BME280;5877;50.930;6.918;2023-05-20T20:02:28;101226.47;;;15.99;59.26
11643;BME280;5877;50.930;6.918;2023-05-20T20:07:22;101214.97;;;15.93;59.15
11643;BME280;5877;50.930;6.918;2023-05-20T20:12:14;101227.50;;;15.98;59.30
11643;BME280;5877;50.930;6.918;2023-05-20T20:17:12;101229.13;;;15.99;59.59
11643;BME280;5877;50.930;6.918;2023-05-20T20:22:07;101212.09;;;15.71;60.02
11643;BME280;5877;50.930;6.918;2023-05-20T20:26:59;101206.03;;;15.59;60.73
11643;BME280;5877;50.930;6.918;2023-05-20T20:31:54;101181.63;;;15.45;60.68
11643;BME280;5877;50.930;6.918;2023-05-20T20:36:50;101200.38;;;15.55;60.90
11643;BME280;5877;50.930;6.918;2023-05-20T20:41:45;101219.81;;;15.73;61.08
11643;BME280;5877;50.930;6.918;2023-05-20T20:46:40;101221.44;;;15.62;61.75
11643;BME280;5877;50.930;6.918;2023-05-20T20:51:34;101220.97;;;15.65;61.44
11643;BME280;5877;50.930;6.918;2023-05-20T20:56:34;101092.34;;;14.82;61.79
11643;BME280;5877;50.930;6.918;2023-05-20T21:01:31;101191.38;;;15.45;62.38
11643;BME280;5877;50.930;6.918;2023-05-20T21:06:34;101204.84;;;15.43;62.50
11643;BME280;5877;50.930;6.918;2023-05-20T21:11:31;101159.75;;;15.15;62.82
11643;BME280;5877;50.930;6.918;2023-05-20T21:16:25;101171.56;;;15.12;63.40
11643;BME280;5877;50.930;6.918;2023-05-20T21:21:17;101022.75;;;14.05;63.25
11643;BME280;5877;50.930;6.918;2023-05-20T21:26:19;101196.75;;;15.15;64.19
11643;BME280;5877;50.930;6.918;2023-05-20T21:31:20;101204.00;;;15.19;63.84
11643;BME280;5877;50.930;6.918;2023-05-20T21:36:20;101129.41;;;14.64;64.33
11643;BME280;5877;50.930;6.918;2023-05-20T21:41:14;101206.50;;;15.03;64.51
11643;BME280;5877;50.930;6.918;2023-05-20T21:46:07;101118.81;;;14.52;64.74
11643;BME280;5877;50.930;6.918;2023-05-20T21:51:08;101025.28;;;13.82;65.25
11643;BME280;5877;50.930;6.918;2023-05-20T21:56:03;101045.50;;;13.88;66.00
11643;BME280;5877;50.930;6.918;2023-05-20T22:00:57;101068.88;;;14.03;65.97
11643;BME280;5877;50.930;6.918;2023-05-20T22:06:08;101183.53;;;14.73;66.48
11643;BME280;5877;50.930;6.918;2023-05-20T22:11:08;101040.53;;;13.80;66.27
11643;BME280;5877;50.930;6.918;2023-05-20T22:16:01;101098.69;;;14.21;66.50
11643;BME280;5877;50.930;6.918;2023-05-20T22:20:58;101001.34;;;13.65;66.28
11643;BME280;5877;50.930;6.918;2023-05-20T22:26:08;101179.66;;;14.76;66.54
11643;BME280;5877;50.930;6.918;2023-05-20T22:31:05;101168.91;;;14.59;66.91
11643;BME280;5877;50.930;6.918;2023-05-20T22:35:57;101160.75;;;14.60;66.98
11643;BME280;5877;50.930;6.918;2023-05-20T22:41:01;101046.41;;;13.82;67.05
11643;BME280;5877;50.930;6.918;2023-05-20T22:45:54;101031.72;;;13.86;67.03
11643;BME280;5877;50.930;6.918;2023-05-20T22:50:47;101046.91;;;13.90;66.97
11643;BME280;5877;50.930;6.918;2023-05-20T22:55:42;101059.13;;;14.03;67.07
11643;BME280;5877;50.930;6.918;2023-05-20T23:00:35;101059.34;;;14.02;67.48
11643;BME280;5877;50.930;6.918;2023-05-20T23:05:31;101001.28;;;13.72;67.38
11643;BME280;5877;50.930;6.918;2023-05-20T23:10:27;101139.94;;;14.52;67.68
11643;BME280;5877;50.930;6.918;2023-05-20T23:15:23;101128.06;;;14.43;67.82
11643;BME280;5877;50.930;6.918;2023-05-20T23:20:17;101115.16;;;14.35;68.05
11643;BME280;5877;50.930;6.918;2023-05-20T23:25:15;100914.22;;;13.05;68.32
11643;BME280;5877;50.930;6.918;2023-05-20T23:30:08;101050.69;;;13.94;68.40
11643;BME280;5877;50.930;6.918;2023-05-20T23:35:05;101105.41;;;14.36;68.58
11643;BME280;5877;50.930;6.918;2023-05-20T23:39:59;101108.69;;;14.31;68.73
11643;BME280;5877;50.930;6.918;2023-05-20T23:44:52;101098.22;;;14.24;69.04
11643;BME280;5877;50.930;6.918;2023-05-20T23:49:46;100911.59;;;13.05;69.19
11643;BME280;5877;50.930;6.918;2023-05-20T23:54:40;101100.38;;;14.16;69.68
11643;BME280;5877;50.930;6.918;2023-05-20T23:59:33;101081.97;;;14.09;70.08
